createdAt,value
2023-03-15T00:02:30.564Z,16.40
2023-03-15T00:06:28.517Z,17.90
2023-03-15T00:10:26.439Z,16.90
2023-03-15T00:14:25.449Z,17.10
2023-03-15T00:18:23.577Z,17.30
2023-03-15T00:22:21.560Z,18.10
2023-03-15T00:26:19.368Z,16.80
2023-03-15T00:30:17.523Z,16.90
2023-03-15T00:34:15.388Z,17.50
2023-03-15T00:38:13.407Z,17.50
2023-03-15T00:42:11.466Z,17.10
2023-03-15T00:46:09.524Z,17.60
2023-03-15T00:50:07.325Z,18.30
2023-03-15T00:54:08.466Z,17.60
2023-03-15T00:58:06.441Z,17.60
2023-03-15T01:02:04.469Z,17.50
2023-03-15T01:06:02.396Z,17.40
2023-03-15T01:10:00.374Z,16.80
2023-03-15T01:13:58.373Z,16.80
2023-03-15T01:17:57.356Z,16.80
2023-03-15T01:21:55.339Z,16.00
2023-03-15T01:25:53.425Z,16.70
2023-03-15T01:29:51.389Z,16.50
2023-03-15T01:33:49.350Z,15.20
2023-03-15T01:37:47.356Z,14.10
2023-03-15T01:41:45.432Z,15.90
2023-03-15T01:46:05.316Z,15.70
2023-03-15T01:50:25.392Z,16.90
2023-03-15T01:54:38.284Z,15.40
2023-03-15T01:58:40.305Z,15.30
2023-03-15T02:02:40.326Z,15.70
2023-03-15T02:06:42.302Z,14.40
2023-03-15T02:10:52.284Z,15.50
2023-03-15T02:14:50.362Z,14.00
2023-03-15T02:18:49.379Z,14.90
2023-03-15T02:23:06.297Z,15.80
2023-03-15T02:27:09.272Z,14.10
2023-03-15T02:31:07.297Z,14.40
2023-03-15T02:35:05.229Z,14.70
2023-03-15T02:39:04.326Z,13.50
2023-03-15T02:43:10.213Z,14.30
2023-03-15T02:47:12.287Z,14.10
2023-03-15T02:51:11.289Z,13.80
2023-03-15T02:55:09.474Z,14.20
2023-03-15T02:59:07.354Z,14.30
2023-03-15T03:03:05.334Z,13.80
2023-03-15T03:07:03.214Z,9.60
2023-03-15T03:11:08.256Z,8.30
2023-03-15T03:15:06.249Z,7.10
2023-03-15T03:19:04.393Z,7.40
2023-03-15T03:23:02.190Z,6.00
2023-03-15T03:27:04.216Z,5.70
2023-03-15T03:31:02.382Z,6.60
2023-03-15T03:35:00.326Z,7.30
2023-03-15T03:39:00.199Z,15.20
2023-03-15T03:42:58.325Z,14.70
2023-03-15T03:46:56.125Z,11.40
2023-03-15T03:50:54.397Z,12.50
2023-03-15T03:54:52.216Z,11.70
2023-03-15T03:58:50.242Z,11.10
2023-03-15T04:02:53.223Z,13.00
2023-03-15T04:06:53.260Z,12.00
2023-03-15T04:10:56.287Z,9.50
2023-03-15T04:14:55.162Z,8.10
2023-03-15T04:18:56.215Z,6.50
2023-03-15T04:22:57.175Z,4.30
2023-03-15T04:27:15.212Z,3.20
2023-03-15T04:31:26.241Z,3.60
2023-03-15T04:35:44.136Z,3.00
2023-03-15T04:40:00.247Z,3.30
2023-03-15T04:44:34.076Z,3.90
2023-03-15T04:48:50.273Z,4.80
2023-03-15T04:53:05.075Z,5.30
2023-03-15T04:57:22.092Z,5.90
2023-03-15T05:01:28.147Z,5.40
2023-03-15T05:05:56.329Z,5.00
2023-03-15T05:10:12.057Z,5.00
2023-03-15T05:14:28.234Z,5.30
2023-03-15T05:18:26.040Z,5.20
2023-03-15T05:22:37.067Z,4.70
2023-03-15T05:26:35.038Z,5.90
2023-03-15T05:30:45.102Z,5.10
2023-03-15T05:34:59.186Z,5.50
2023-03-15T05:39:06.072Z,5.30
2023-03-15T05:43:20.035Z,5.20
2023-03-15T05:47:36.029Z,6.10
2023-03-15T05:51:40.973Z,5.90
2023-03-15T05:55:47.991Z,7.00
2023-03-15T06:00:04.982Z,5.50
2023-03-15T06:04:06.056Z,5.20
2023-03-15T06:08:04.017Z,5.10
2023-03-15T06:12:04.100Z,5.40
2023-03-15T06:16:02.918Z,5.20
2023-03-15T06:20:07.201Z,5.00
2023-03-15T06:24:05.009Z,4.80
2023-03-15T06:28:02.968Z,4.90
2023-03-15T06:32:02.945Z,5.40
2023-03-15T06:36:01.963Z,4.80
2023-03-15T06:40:01.000Z,4.70
2023-03-15T06:43:58.923Z,4.20
2023-03-15T06:47:56.926Z,5.00
2023-03-15T06:51:56.017Z,4.90
2023-03-15T06:55:54.089Z,5.30
2023-03-15T06:59:40.581Z,4.60
2023-03-15T07:03:04.545Z,5.10
2023-03-15T07:06:29.705Z,5.20
2023-03-15T07:09:55.246Z,3.60
2023-03-15T07:13:20.748Z,4.30
2023-03-15T07:16:44.845Z,4.00
2023-03-15T07:20:09.369Z,4.30
2023-03-15T07:23:33.753Z,4.00
2023-03-15T07:26:57.898Z,5.30
2023-03-15T07:30:22.897Z,4.20
2023-03-15T07:33:46.757Z,4.40
2023-03-15T07:37:10.986Z,5.00
2023-03-15T07:40:35.759Z,5.40
2023-03-15T07:44:00.466Z,5.30
2023-03-15T07:47:24.501Z,5.70
2023-03-15T07:50:48.662Z,6.30
2023-03-15T07:54:12.646Z,6.70
2023-03-15T07:57:38.124Z,7.10
2023-03-15T08:01:03.130Z,8.80
2023-03-15T08:04:28.244Z,7.70
2023-03-15T08:07:52.282Z,8.00
2023-03-15T08:11:16.351Z,7.00
2023-03-15T08:14:40.463Z,8.20
2023-03-15T08:18:05.959Z,8.20
2023-03-15T08:21:33.882Z,8.00
2023-03-15T08:24:57.794Z,7.80
2023-03-15T08:28:22.058Z,7.60
2023-03-15T08:31:45.963Z,7.80
2023-03-15T08:35:15.188Z,7.00
2023-03-15T08:38:39.898Z,6.80
2023-03-15T08:42:03.810Z,7.50
2023-03-15T08:45:28.317Z,7.30
2023-03-15T08:48:53.179Z,7.80
2023-03-15T08:52:18.287Z,7.10
2023-03-15T08:55:42.601Z,7.00
2023-03-15T08:59:06.522Z,6.50
2023-03-15T09:02:30.622Z,7.20
2023-03-15T09:06:01.487Z,7.60
2023-03-15T09:09:26.517Z,7.00
2023-03-15T09:12:54.073Z,7.40
2023-03-15T09:16:19.824Z,7.50
2023-03-15T09:19:45.081Z,6.80
2023-03-15T09:23:10.923Z,8.00
2023-03-15T09:26:34.853Z,6.70
2023-03-15T09:29:58.831Z,6.30
2023-03-15T09:33:23.554Z,7.90
2023-03-15T09:36:53.159Z,7.40
2023-03-15T09:40:25.109Z,6.80
2023-03-15T09:44:40.574Z,7.40
2023-03-15T09:48:14.882Z,7.20
2023-03-15T09:51:58.445Z,7.10
2023-03-15T09:55:28.118Z,6.60
2023-03-15T09:58:59.134Z,5.80
2023-03-15T10:02:29.243Z,6.30
2023-03-15T10:06:16.264Z,5.50
2023-03-15T10:09:40.134Z,6.10
2023-03-15T10:13:37.531Z,5.60
2023-03-15T10:17:08.545Z,6.20
2023-03-15T10:20:35.831Z,6.10
2023-03-15T10:24:01.700Z,6.40
2023-03-15T10:31:25.682Z,5.90
2023-03-15T10:34:56.786Z,5.50
2023-03-15T10:38:23.304Z,6.60
2023-03-15T10:41:52.321Z,6.40
2023-03-15T10:45:28.415Z,7.30
2023-03-15T10:52:35.709Z,6.60
2023-03-15T10:56:08.151Z,6.30
2023-03-15T10:59:35.697Z,7.00
2023-03-15T11:03:06.981Z,7.00
2023-03-15T11:06:41.751Z,7.00
2023-03-15T11:10:08.081Z,7.60
2023-03-15T11:13:36.990Z,7.70
2023-03-15T11:17:03.487Z,7.40
2023-03-15T11:20:41.046Z,7.00
2023-03-15T11:24:08.659Z,7.50
2023-03-15T11:27:34.007Z,7.20
2023-03-15T11:31:00.982Z,7.70
2023-03-15T11:34:46.038Z,6.80
2023-03-15T11:38:19.950Z,8.10
2023-03-15T11:41:51.357Z,7.10
2023-03-15T11:45:40.415Z,7.20
2023-03-15T11:49:41.726Z,7.30
2023-03-15T11:53:07.516Z,7.10
2023-03-15T12:00:27.037Z,7.10
2023-03-15T12:03:51.578Z,8.00
2023-03-15T12:07:24.053Z,7.20
2023-03-15T12:10:50.060Z,6.70
2023-03-15T12:14:29.412Z,7.20
2023-03-15T12:17:56.992Z,7.50
2023-03-15T12:21:24.750Z,7.60
2023-03-15T12:24:49.400Z,7.10
2023-03-15T12:28:24.621Z,7.50
2023-03-15T12:32:05.557Z,7.30
2023-03-15T12:35:39.810Z,7.70
2023-03-15T12:39:16.061Z,7.40
2023-03-15T12:42:40.138Z,7.30
2023-03-15T12:46:06.328Z,6.70
2023-03-15T12:49:30.460Z,7.90
2023-03-15T12:52:54.695Z,7.00
2023-03-15T12:56:32.754Z,7.50
2023-03-15T13:00:16.889Z,6.70
2023-03-15T13:03:42.010Z,7.30
2023-03-15T13:07:24.709Z,7.90
2023-03-15T13:11:07.313Z,6.90
2023-03-15T13:14:34.435Z,6.90
2023-03-15T13:18:04.661Z,6.60
2023-03-15T13:21:55.674Z,5.40
2023-03-15T13:25:35.615Z,7.10
2023-03-15T13:29:17.798Z,6.40
2023-03-15T13:32:44.572Z,6.40
2023-03-15T13:36:16.153Z,6.90
2023-03-15T13:39:40.074Z,6.70
2023-03-15T13:43:03.990Z,7.10
2023-03-15T13:46:31.764Z,6.80
2023-03-15T13:49:57.770Z,6.30
2023-03-15T13:57:15.341Z,6.60
2023-03-15T14:00:39.438Z,6.10
2023-03-15T14:04:11.441Z,6.10
2023-03-15T14:07:41.827Z,6.50
2023-03-15T14:11:19.949Z,7.10
2023-03-15T14:14:51.980Z,7.40
2023-03-15T14:18:24.903Z,7.50
2023-03-15T14:22:05.067Z,6.60
2023-03-15T14:25:29.358Z,6.50
2023-03-15T14:29:02.240Z,6.20
2023-03-15T14:32:50.421Z,6.80
2023-03-15T14:36:56.306Z,7.50
2023-03-15T14:40:54.344Z,7.80
2023-03-15T14:44:52.335Z,6.70
2023-03-15T14:48:50.267Z,7.30
2023-03-15T14:52:49.304Z,6.80
2023-03-15T14:56:48.301Z,6.30
2023-03-15T15:00:47.489Z,6.20
2023-03-15T15:04:50.343Z,6.80
2023-03-15T15:08:49.409Z,6.50
2023-03-15T15:12:50.765Z,6.20
2023-03-15T15:16:54.546Z,6.70
2023-03-15T15:20:52.251Z,7.30
2023-03-15T15:24:51.420Z,7.10
2023-03-15T15:28:50.224Z,7.80
2023-03-15T15:32:48.407Z,7.10
2023-03-15T15:36:55.324Z,7.70
2023-03-15T15:40:54.284Z,8.50
2023-03-15T15:44:52.455Z,7.80
2023-03-15T15:48:50.228Z,10.20
2023-03-15T15:52:48.187Z,9.40
2023-03-15T15:56:54.220Z,8.30
2023-03-15T16:00:52.188Z,9.50
2023-03-15T16:04:50.231Z,9.00
2023-03-15T16:08:53.169Z,10.70
2023-03-15T16:12:51.198Z,9.40
2023-03-15T16:16:49.134Z,10.50
2023-03-15T16:20:47.225Z,11.40
2023-03-15T16:24:51.485Z,11.60
2023-03-15T16:28:49.233Z,11.90
2023-03-15T16:32:47.313Z,14.30
2023-03-15T16:36:48.924Z,12.40
2023-03-15T16:40:50.120Z,13.20
2023-03-15T16:44:48.250Z,12.20
2023-03-15T16:48:46.185Z,13.00
2023-03-15T16:52:44.171Z,11.90
2023-03-15T16:56:47.257Z,12.30
2023-03-15T17:00:45.239Z,14.10
2023-03-15T17:04:43.104Z,13.80
2023-03-15T17:08:41.203Z,13.70
2023-03-15T17:12:43.137Z,12.20
2023-03-15T17:16:41.203Z,14.50
2023-03-15T17:20:41.220Z,11.40
2023-03-15T17:24:39.848Z,11.30
2023-03-15T17:28:39.219Z,11.90
2023-03-15T17:32:37.424Z,11.10
2023-03-15T17:36:38.359Z,10.40
2023-03-15T17:40:42.164Z,12.40
2023-03-15T17:44:40.146Z,12.40
2023-03-15T17:48:38.289Z,13.20
2023-03-15T17:52:35.991Z,13.80
2023-03-15T17:56:37.739Z,14.40
2023-03-15T18:00:35.299Z,12.40
2023-03-15T18:04:35.272Z,12.20
2023-03-15T18:08:35.329Z,11.90
2023-03-15T18:12:34.611Z,12.40
2023-03-15T18:16:32.264Z,12.10
2023-03-15T18:20:31.281Z,13.60
2023-03-15T18:24:31.627Z,16.00
2023-03-15T18:28:29.274Z,17.50
2023-03-15T18:32:27.041Z,15.90
2023-03-15T18:36:26.028Z,14.50
2023-03-15T18:40:26.030Z,14.30
2023-03-15T18:44:25.155Z,16.80
2023-03-15T18:48:34.269Z,15.40
2023-03-15T18:52:38.036Z,14.50
2023-03-15T18:56:40.953Z,15.50
2023-03-15T19:00:44.995Z,15.30
2023-03-15T19:04:43.088Z,15.40
2023-03-15T19:08:41.021Z,15.30
2023-03-15T19:12:38.901Z,15.20
2023-03-15T19:16:38.060Z,13.40
2023-03-15T19:20:37.091Z,11.50
2023-03-15T19:24:36.084Z,12.40
2023-03-15T19:28:34.964Z,12.10
2023-03-15T19:32:32.916Z,11.90
2023-03-15T19:36:31.950Z,11.40
2023-03-15T19:40:31.262Z,12.60
2023-03-15T19:44:28.978Z,12.00
2023-03-15T19:48:27.007Z,13.80
2023-03-15T19:52:24.819Z,14.50
2023-03-15T19:56:23.999Z,14.50
2023-03-15T20:00:23.209Z,14.00
2023-03-15T20:04:21.269Z,12.80
2023-03-15T20:08:20.831Z,13.80
2023-03-15T20:12:22.911Z,14.00
2023-03-15T20:16:20.917Z,18.10
2023-03-15T20:20:21.162Z,18.40
2023-03-15T20:24:18.857Z,17.80
2023-03-15T20:28:16.945Z,21.30
2023-03-15T20:32:14.792Z,22.10
2023-03-15T20:36:13.870Z,18.70
2023-03-15T20:40:17.261Z,20.60
2023-03-15T20:44:14.918Z,17.30
2023-03-15T20:48:12.886Z,20.60
2023-03-15T20:52:11.894Z,20.20
2023-03-15T20:56:09.759Z,18.60
2023-03-15T21:00:08.972Z,16.80
2023-03-15T21:04:06.845Z,16.10
2023-03-15T21:08:04.924Z,16.70
2023-03-15T21:12:03.759Z,16.90
2023-03-15T21:16:02.231Z,15.50
2023-03-15T21:20:01.836Z,16.70
2023-03-15T21:24:00.832Z,18.60
2023-03-15T21:28:01.153Z,18.00
2023-03-15T21:31:58.927Z,17.40
2023-03-15T21:35:57.996Z,18.30
2023-03-15T21:39:55.796Z,18.00
2023-03-15T21:43:56.691Z,18.00
2023-03-15T21:47:54.730Z,18.90
2023-03-15T21:51:52.754Z,19.90
2023-03-15T21:55:52.704Z,17.20
2023-03-15T21:59:50.652Z,19.30
2023-03-15T22:03:50.679Z,18.10
2023-03-15T22:07:49.274Z,16.50
2023-03-15T22:11:49.804Z,18.00
2023-03-15T22:15:47.652Z,17.40
2023-03-15T22:19:46.717Z,17.70
2023-03-15T22:23:46.632Z,19.00
2023-03-15T22:27:44.703Z,19.30
2023-03-15T22:31:44.645Z,18.20
2023-03-15T22:35:42.719Z,19.00
2023-03-15T22:39:40.627Z,19.80
2023-03-15T22:43:38.729Z,20.40
2023-03-15T22:47:36.607Z,18.00
2023-03-15T22:51:34.657Z,18.70
2023-03-15T22:55:33.638Z,17.80
2023-03-15T22:59:35.680Z,18.50
2023-03-15T23:03:33.670Z,19.50
2023-03-15T23:07:31.647Z,19.40
2023-03-15T23:11:29.564Z,18.50
2023-03-15T23:15:27.640Z,17.20
2023-03-15T23:19:25.553Z,15.80
2023-03-15T23:23:23.743Z,17.40
2023-03-15T23:27:21.561Z,16.40
2023-03-15T23:31:20.640Z,15.50
2023-03-15T23:35:21.568Z,16.50
2023-03-15T23:39:19.632Z,16.00
2023-03-15T23:43:17.553Z,15.20
2023-03-15T23:47:15.609Z,16.40
2023-03-15T23:51:13.587Z,15.80
2023-03-15T23:55:11.656Z,17.50
2023-03-15T23:59:09.563Z,15.80
